sensor_id;sensor_type;location;lat;lon;timestamp;P1;durP1;ratioP1;P2;durP2;ratioP2
51614;SDS011;37695;52.960;6.188;2023-07-31T00:00:04;6.32;;;3.50;;
51614;SDS011;37695;52.960;6.188;2023-07-31T00:02:31;8.50;;;3.88;;
51614;SDS011;37695;52.960;6.188;2023-07-31T00:04:56;4.70;;;3.13;;
51614;SDS011;37695;52.960;6.188;2023-07-31T00:07:22;6.85;;;3.40;;
51614;SDS011;37695;52.960;6.188;2023-07-31T00:09:47;7.90;;;3.88;;
51614;SDS011;37695;52.960;6.188;2023-07-31T00:12:13;8.02;;;4.45;;
51614;SDS011;37695;52.960;6.188;2023-07-31T00:14:38;9.98;;;3.30;;
51614;SDS011;37695;52.960;6.188;2023-07-31T00:17:04;4.95;;;3.25;;
51614;SDS011;37695;52.960;6.188;2023-07-31T00:19:30;6.85;;;3.17;;
51614;SDS011;37695;52.960;6.188;2023-07-31T00:21:55;5.25;;;3.50;;
51614;SDS011;37695;52.960;6.188;2023-07-31T00:24:21;6.15;;;3.72;;
51614;SDS011;37695;52.960;6.188;2023-07-31T00:26:46;6.60;;;3.00;;
51614;SDS011;37695;52.960;6.188;2023-07-31T00:29:12;5.53;;;3.47;;
51614;SDS011;37695;52.960;6.188;2023-07-31T00:31:37;6.65;;;3.38;;
51614;SDS011;37695;52.960;6.188;2023-07-31T00:34:03;4.70;;;3.03;;
51614;SDS011;37695;52.960;6.188;2023-07-31T00:36:28;5.85;;;3.33;;
51614;SDS011;37695;52.960;6.188;2023-07-31T00:38:54;6.00;;;3.13;;
51614;SDS011;37695;52.960;6.188;2023-07-31T00:41:19;7.93;;;3.15;;
51614;SDS011;37695;52.960;6.188;2023-07-31T00:43:45;5.32;;;3.00;;
51614;SDS011;37695;52.960;6.188;2023-07-31T00:46:11;4.50;;;2.85;;
51614;SDS011;37695;52.960;6.188;2023-07-31T00:48:36;6.10;;;2.78;;
51614;SDS011;37695;52.960;6.188;2023-07-31T00:51:04;4.65;;;2.50;;
51614;SDS011;37695;52.960;6.188;2023-07-31T00:53:29;2.75;;;2.03;;
51614;SDS011;37695;52.960;6.188;2023-07-31T00:55:55;2.92;;;2.15;;
51614;SDS011;37695;52.960;6.188;2023-07-31T00:58:21;3.55;;;2.20;;
51614;SDS011;37695;52.960;6.188;2023-07-31T01:00:46;8.45;;;2.22;;
51614;SDS011;37695;52.960;6.188;2023-07-31T01:03:12;3.22;;;1.98;;
51614;SDS011;37695;52.960;6.188;2023-07-31T01:05:49;2.72;;;1.60;;
51614;SDS011;37695;52.960;6.188;2023-07-31T01:08:38;2.47;;;1.52;;
51614;SDS011;37695;52.960;6.188;2023-07-31T01:11:15;1.88;;;1.55;;
51614;SDS011;37695;52.960;6.188;2023-07-31T01:13:44;2.58;;;1.67;;
51614;SDS011;37695;52.960;6.188;2023-07-31T01:16:10;2.30;;;1.50;;
51614;SDS011;37695;52.960;6.188;2023-07-31T01:18:36;2.20;;;1.48;;
51614;SDS011;37695;52.960;6.188;2023-07-31T01:21:03;1.58;;;1.48;;
51614;SDS011;37695;52.960;6.188;2023-07-31T01:26:45;1.83;;;1.40;;
51614;SDS011;37695;52.960;6.188;2023-07-31T01:32:08;4.22;;;1.65;;
51614;SDS011;37695;52.960;6.188;2023-07-31T01:34:35;4.88;;;1.30;;
51614;SDS011;37695;52.960;6.188;2023-07-31T01:37:02;1.90;;;1.30;;
51614;SDS011;37695;52.960;6.188;2023-07-31T01:39:28;3.15;;;1.30;;
51614;SDS011;37695;52.960;6.188;2023-07-31T01:41:53;1.27;;;1.13;;
51614;SDS011;37695;52.960;6.188;2023-07-31T01:44:19;1.10;;;1.10;;
51614;SDS011;37695;52.960;6.188;2023-07-31T01:46:44;1.50;;;1.20;;
51614;SDS011;37695;52.960;6.188;2023-07-31T01:49:10;1.20;;;1.10;;
51614;SDS011;37695;52.960;6.188;2023-07-31T01:51:36;1.02;;;1.00;;
51614;SDS011;37695;52.960;6.188;2023-07-31T01:54:01;2.33;;;1.20;;
51614;SDS011;37695;52.960;6.188;2023-07-31T01:56:27;2.15;;;1.20;;
51614;SDS011;37695;52.960;6.188;2023-07-31T01:58:53;1.20;;;1.10;;
51614;SDS011;37695;52.960;6.188;2023-07-31T02:01:18;1.15;;;1.10;;
51614;SDS011;37695;52.960;6.188;2023-07-31T02:03:44;2.67;;;1.20;;
51614;SDS011;37695;52.960;6.188;2023-07-31T02:06:10;2.17;;;1.30;;
51614;SDS011;37695;52.960;6.188;2023-07-31T02:08:35;1.23;;;1.00;;
51614;SDS011;37695;52.960;6.188;2023-07-31T02:11:01;1.33;;;1.20;;
51614;SDS011;37695;52.960;6.188;2023-07-31T02:13:26;1.70;;;1.30;;
51614;SDS011;37695;52.960;6.188;2023-07-31T02:15:52;2.65;;;1.30;;
51614;SDS011;37695;52.960;6.188;2023-07-31T02:18:17;3.70;;;1.55;;
51614;SDS011;37695;52.960;6.188;2023-07-31T02:20:43;1.38;;;1.27;;
51614;SDS011;37695;52.960;6.188;2023-07-31T02:23:14;2.15;;;1.38;;
51614;SDS011;37695;52.960;6.188;2023-07-31T02:25:39;1.45;;;1.35;;
51614;SDS011;37695;52.960;6.188;2023-07-31T02:28:05;1.85;;;1.52;;
51614;SDS011;37695;52.960;6.188;2023-07-31T02:30:30;1.70;;;1.30;;
51614;SDS011;37695;52.960;6.188;2023-07-31T02:32:56;2.92;;;1.42;;
51614;SDS011;37695;52.960;6.188;2023-07-31T02:35:21;2.58;;;1.33;;
51614;SDS011;37695;52.960;6.188;2023-07-31T02:37:47;3.58;;;1.50;;
51614;SDS011;37695;52.960;6.188;2023-07-31T02:40:12;2.70;;;1.60;;
51614;SDS011;37695;52.960;6.188;2023-07-31T02:42:38;2.00;;;1.60;;
51614;SDS011;37695;52.960;6.188;2023-07-31T02:45:03;1.60;;;1.30;;
51614;SDS011;37695;52.960;6.188;2023-07-31T02:47:29;3.17;;;1.65;;
51614;SDS011;37695;52.960;6.188;2023-07-31T02:49:55;2.92;;;1.65;;
51614;SDS011;37695;52.960;6.188;2023-07-31T02:52:21;2.40;;;1.52;;
51614;SDS011;37695;52.960;6.188;2023-07-31T02:54:46;4.70;;;1.63;;
51614;SDS011;37695;52.960;6.188;2023-07-31T02:57:12;4.00;;;1.50;;
51614;SDS011;37695;52.960;6.188;2023-07-31T02:59:37;2.83;;;1.67;;
51614;SDS011;37695;52.960;6.188;2023-07-31T03:02:03;3.15;;;1.70;;
51614;SDS011;37695;52.960;6.188;2023-07-31T03:04:28;1.77;;;1.40;;
51614;SDS011;37695;52.960;6.188;2023-07-31T03:06:54;5.30;;;1.80;;
51614;SDS011;37695;52.960;6.188;2023-07-31T03:09:20;3.10;;;1.90;;
51614;SDS011;37695;52.960;6.188;2023-07-31T03:11:45;2.67;;;1.50;;
51614;SDS011;37695;52.960;6.188;2023-07-31T03:14:10;2.45;;;1.60;;
51614;SDS011;37695;52.960;6.188;2023-07-31T03:16:36;3.55;;;1.75;;
51614;SDS011;37695;52.960;6.188;2023-07-31T03:19:02;3.25;;;1.67;;
51614;SDS011;37695;52.960;6.188;2023-07-31T03:21:27;2.83;;;1.40;;
51614;SDS011;37695;52.960;6.188;2023-07-31T03:23:53;2.88;;;1.65;;
51614;SDS011;37695;52.960;6.188;2023-07-31T03:26:18;2.63;;;1.80;;
51614;SDS011;37695;52.960;6.188;2023-07-31T03:28:44;1.60;;;1.50;;
51614;SDS011;37695;52.960;6.188;2023-07-31T03:31:09;1.73;;;1.33;;
51614;SDS011;37695;52.960;6.188;2023-07-31T03:33:36;3.38;;;1.60;;
51614;SDS011;37695;52.960;6.188;2023-07-31T03:36:02;2.70;;;1.70;;
51614;SDS011;37695;52.960;6.188;2023-07-31T03:38:27;2.65;;;1.58;;
51614;SDS011;37695;52.960;6.188;2023-07-31T03:40:53;2.78;;;1.60;;
51614;SDS011;37695;52.960;6.188;2023-07-31T03:43:18;2.97;;;1.70;;
51614;SDS011;37695;52.960;6.188;2023-07-31T03:45:44;4.18;;;1.60;;
51614;SDS011;37695;52.960;6.188;2023-07-31T03:48:10;3.00;;;1.60;;
51614;SDS011;37695;52.960;6.188;2023-07-31T03:50:35;2.13;;;1.50;;
51614;SDS011;37695;52.960;6.188;2023-07-31T03:53:01;3.15;;;1.60;;
51614;SDS011;37695;52.960;6.188;2023-07-31T03:55:27;2.55;;;1.50;;
51614;SDS011;37695;52.960;6.188;2023-07-31T03:57:52;2.47;;;1.70;;
51614;SDS011;37695;52.960;6.188;2023-07-31T04:00:18;2.45;;;1.70;;
51614;SDS011;37695;52.960;6.188;2023-07-31T04:02:43;2.60;;;1.67;;
51614;SDS011;37695;52.960;6.188;2023-07-31T04:05:09;3.00;;;1.65;;
51614;SDS011;37695;52.960;6.188;2023-07-31T04:07:35;3.30;;;1.80;;
51614;SDS011;37695;52.960;6.188;2023-07-31T04:10:01;5.07;;;1.85;;
51614;SDS011;37695;52.960;6.188;2023-07-31T04:12:27;3.90;;;1.52;;
51614;SDS011;37695;52.960;6.188;2023-07-31T04:14:52;3.65;;;1.52;;
51614;SDS011;37695;52.960;6.188;2023-07-31T04:17:18;2.70;;;1.50;;
51614;SDS011;37695;52.960;6.188;2023-07-31T04:19:43;3.50;;;1.50;;
51614;SDS011;37695;52.960;6.188;2023-07-31T04:22:09;2.47;;;1.65;;
51614;SDS011;37695;52.960;6.188;2023-07-31T04:24:35;2.17;;;1.52;;
51614;SDS011;37695;52.960;6.188;2023-07-31T04:27:00;2.17;;;1.50;;
51614;SDS011;37695;52.960;6.188;2023-07-31T04:29:26;2.35;;;1.50;;
51614;SDS011;37695;52.960;6.188;2023-07-31T04:31:51;1.92;;;1.48;;
51614;SDS011;37695;52.960;6.188;2023-07-31T04:34:17;2.05;;;1.45;;
51614;SDS011;37695;52.960;6.188;2023-07-31T04:36:42;3.20;;;1.63;;
51614;SDS011;37695;52.960;6.188;2023-07-31T04:39:08;3.85;;;1.92;;
51614;SDS011;37695;52.960;6.188;2023-07-31T04:41:33;5.20;;;2.20;;
51614;SDS011;37695;52.960;6.188;2023-07-31T04:43:59;6.57;;;2.10;;
51614;SDS011;37695;52.960;6.188;2023-07-31T04:46:24;4.97;;;1.90;;
51614;SDS011;37695;52.960;6.188;2023-07-31T04:48:50;6.38;;;2.28;;
51614;SDS011;37695;52.960;6.188;2023-07-31T04:51:15;5.90;;;3.00;;
51614;SDS011;37695;52.960;6.188;2023-07-31T04:53:41;4.93;;;2.45;;
51614;SDS011;37695;52.960;6.188;2023-07-31T04:56:06;7.47;;;2.85;;
51614;SDS011;37695;52.960;6.188;2023-07-31T04:58:32;6.68;;;3.10;;
51614;SDS011;37695;52.960;6.188;2023-07-31T05:00:57;8.40;;;3.30;;
51614;SDS011;37695;52.960;6.188;2023-07-31T05:03:23;8.85;;;4.00;;
51614;SDS011;37695;52.960;6.188;2023-07-31T05:05:49;11.48;;;5.15;;
51614;SDS011;37695;52.960;6.188;2023-07-31T05:08:15;14.05;;;5.30;;
51614;SDS011;37695;52.960;6.188;2023-07-31T05:10:42;18.80;;;6.57;;
51614;SDS011;37695;52.960;6.188;2023-07-31T05:13:08;18.20;;;6.40;;
51614;SDS011;37695;52.960;6.188;2023-07-31T05:15:33;17.77;;;6.38;;
51614;SDS011;37695;52.960;6.188;2023-07-31T05:17:59;14.50;;;6.75;;
51614;SDS011;37695;52.960;6.188;2023-07-31T05:20:24;17.70;;;7.65;;
51614;SDS011;37695;52.960;6.188;2023-07-31T05:22:50;17.65;;;7.25;;
51614;SDS011;37695;52.960;6.188;2023-07-31T05:25:16;20.25;;;9.13;;
51614;SDS011;37695;52.960;6.188;2023-07-31T05:27:41;21.20;;;7.63;;
51614;SDS011;37695;52.960;6.188;2023-07-31T05:30:07;21.27;;;7.43;;
51614;SDS011;37695;52.960;6.188;2023-07-31T05:32:33;19.92;;;7.50;;
51614;SDS011;37695;52.960;6.188;2023-07-31T05:34:58;19.48;;;8.32;;
51614;SDS011;37695;52.960;6.188;2023-07-31T05:37:24;24.05;;;7.80;;
51614;SDS011;37695;52.960;6.188;2023-07-31T05:39:50;23.27;;;8.13;;
51614;SDS011;37695;52.960;6.188;2023-07-31T05:42:16;22.95;;;7.95;;
51614;SDS011;37695;52.960;6.188;2023-07-31T05:44:41;20.80;;;7.47;;
51614;SDS011;37695;52.960;6.188;2023-07-31T05:47:07;19.50;;;7.97;;
51614;SDS011;37695;52.960;6.188;2023-07-31T05:49:33;17.83;;;7.80;;
51614;SDS011;37695;52.960;6.188;2023-07-31T05:51:58;18.35;;;8.40;;
51614;SDS011;37695;52.960;6.188;2023-07-31T05:54:24;23.05;;;8.50;;
51614;SDS011;37695;52.960;6.188;2023-07-31T05:56:50;19.05;;;7.70;;
51614;SDS011;37695;52.960;6.188;2023-07-31T05:59:15;18.70;;;7.57;;
51614;SDS011;37695;52.960;6.188;2023-07-31T06:01:41;19.23;;;7.75;;
51614;SDS011;37695;52.960;6.188;2023-07-31T06:04:07;15.13;;;7.72;;
51614;SDS011;37695;52.960;6.188;2023-07-31T06:06:32;22.33;;;8.05;;
51614;SDS011;37695;52.960;6.188;2023-07-31T06:08:58;19.45;;;8.05;;
51614;SDS011;37695;52.960;6.188;2023-07-31T06:11:24;19.25;;;7.55;;
51614;SDS011;37695;52.960;6.188;2023-07-31T06:13:49;18.73;;;7.85;;
51614;SDS011;37695;52.960;6.188;2023-07-31T06:16:15;16.98;;;7.00;;
51614;SDS011;37695;52.960;6.188;2023-07-31T06:18:41;16.48;;;7.28;;
51614;SDS011;37695;52.960;6.188;2023-07-31T06:21:07;17.95;;;6.60;;
51614;SDS011;37695;52.960;6.188;2023-07-31T06:23:33;15.82;;;7.18;;
51614;SDS011;37695;52.960;6.188;2023-07-31T06:25:58;17.20;;;7.32;;
51614;SDS011;37695;52.960;6.188;2023-07-31T06:28:27;17.88;;;7.28;;
51614;SDS011;37695;52.960;6.188;2023-07-31T06:30:54;14.57;;;6.07;;
51614;SDS011;37695;52.960;6.188;2023-07-31T06:33:20;18.15;;;7.68;;
51614;SDS011;37695;52.960;6.188;2023-07-31T06:35:45;16.58;;;6.13;;
51614;SDS011;37695;52.960;6.188;2023-07-31T06:38:11;15.60;;;6.28;;
51614;SDS011;37695;52.960;6.188;2023-07-31T06:40:36;17.88;;;7.20;;
51614;SDS011;37695;52.960;6.188;2023-07-31T06:43:02;13.23;;;5.53;;
51614;SDS011;37695;52.960;6.188;2023-07-31T06:45:33;13.48;;;6.30;;
51614;SDS011;37695;52.960;6.188;2023-07-31T06:47:59;16.95;;;6.45;;
51614;SDS011;37695;52.960;6.188;2023-07-31T06:50:26;19.58;;;6.22;;
51614;SDS011;37695;52.960;6.188;2023-07-31T06:52:55;14.95;;;6.53;;
51614;SDS011;37695;52.960;6.188;2023-07-31T06:55:21;12.73;;;5.60;;
51614;SDS011;37695;52.960;6.188;2023-07-31T06:57:47;12.40;;;5.63;;
51614;SDS011;37695;52.960;6.188;2023-07-31T07:00:15;14.93;;;5.38;;
51614;SDS011;37695;52.960;6.188;2023-07-31T07:02:41;9.75;;;4.22;;
51614;SDS011;37695;52.960;6.188;2023-07-31T07:05:07;9.75;;;4.18;;
51614;SDS011;37695;52.960;6.188;2023-07-31T07:07:33;7.32;;;3.47;;
51614;SDS011;37695;52.960;6.188;2023-07-31T07:09:58;7.70;;;3.13;;
51614;SDS011;37695;52.960;6.188;2023-07-31T07:12:24;8.00;;;3.70;;
51614;SDS011;37695;52.960;6.188;2023-07-31T07:14:50;7.55;;;3.42;;
51614;SDS011;37695;52.960;6.188;2023-07-31T07:17:18;7.65;;;3.00;;
51614;SDS011;37695;52.960;6.188;2023-07-31T07:19:44;6.50;;;2.80;;
51614;SDS011;37695;52.960;6.188;2023-07-31T07:22:10;6.20;;;2.67;;
51614;SDS011;37695;52.960;6.188;2023-07-31T07:24:36;7.20;;;3.20;;
51614;SDS011;37695;52.960;6.188;2023-07-31T07:27:02;4.32;;;2.60;;
51614;SDS011;37695;52.960;6.188;2023-07-31T07:29:28;5.45;;;2.55;;
51614;SDS011;37695;52.960;6.188;2023-07-31T07:31:53;3.75;;;2.17;;
51614;SDS011;37695;52.960;6.188;2023-07-31T07:34:19;3.38;;;2.00;;
51614;SDS011;37695;52.960;6.188;2023-07-31T07:36:47;4.45;;;2.08;;
51614;SDS011;37695;52.960;6.188;2023-07-31T07:39:13;4.10;;;2.10;;
51614;SDS011;37695;52.960;6.188;2023-07-31T07:41:39;3.25;;;2.33;;
51614;SDS011;37695;52.960;6.188;2023-07-31T07:44:05;3.97;;;2.15;;
51614;SDS011;37695;52.960;6.188;2023-07-31T07:46:30;4.43;;;2.30;;
51614;SDS011;37695;52.960;6.188;2023-07-31T07:48:56;3.17;;;1.92;;
51614;SDS011;37695;52.960;6.188;2023-07-31T07:51:21;4.22;;;2.08;;
51614;SDS011;37695;52.960;6.188;2023-07-31T07:53:47;3.85;;;1.95;;
51614;SDS011;37695;52.960;6.188;2023-07-31T07:56:12;4.00;;;2.20;;
51614;SDS011;37695;52.960;6.188;2023-07-31T07:58:38;3.97;;;2.10;;
51614;SDS011;37695;52.960;6.188;2023-07-31T08:01:03;2.60;;;1.77;;
51614;SDS011;37695;52.960;6.188;2023-07-31T08:03:29;2.70;;;1.70;;
51614;SDS011;37695;52.960;6.188;2023-07-31T08:06:03;3.95;;;1.95;;
51614;SDS011;37695;52.960;6.188;2023-07-31T08:08:29;3.75;;;2.08;;
51614;SDS011;37695;52.960;6.188;2023-07-31T08:10:54;3.30;;;1.88;;
51614;SDS011;37695;52.960;6.188;2023-07-31T08:13:20;3.25;;;1.70;;
51614;SDS011;37695;52.960;6.188;2023-07-31T08:15:45;2.92;;;1.70;;
51614;SDS011;37695;52.960;6.188;2023-07-31T08:18:11;2.70;;;1.70;;
51614;SDS011;37695;52.960;6.188;2023-07-31T08:20:37;2.67;;;1.73;;
51614;SDS011;37695;52.960;6.188;2023-07-31T08:23:03;3.30;;;1.65;;
51614;SDS011;37695;52.960;6.188;2023-07-31T08:25:29;2.88;;;1.63;;
51614;SDS011;37695;52.960;6.188;2023-07-31T08:27:55;2.10;;;1.60;;
51614;SDS011;37695;52.960;6.188;2023-07-31T08:30:21;1.73;;;1.40;;
51614;SDS011;37695;52.960;6.188;2023-07-31T08:32:46;2.80;;;1.83;;
51614;SDS011;37695;52.960;6.188;2023-07-31T08:35:12;2.25;;;1.40;;
51614;SDS011;37695;52.960;6.188;2023-07-31T08:37:38;1.67;;;1.40;;
51614;SDS011;37695;52.960;6.188;2023-07-31T08:40:04;1.75;;;1.40;;
51614;SDS011;37695;52.960;6.188;2023-07-31T08:42:30;1.75;;;1.50;;
51614;SDS011;37695;52.960;6.188;2023-07-31T08:44:56;3.17;;;1.42;;
51614;SDS011;37695;52.960;6.188;2023-07-31T08:47:25;2.78;;;1.60;;
51614;SDS011;37695;52.960;6.188;2023-07-31T08:49:51;1.63;;;1.38;;
51614;SDS011;37695;52.960;6.188;2023-07-31T08:52:18;2.70;;;1.30;;
51614;SDS011;37695;52.960;6.188;2023-07-31T08:54:44;1.33;;;1.20;;
51614;SDS011;37695;52.960;6.188;2023-07-31T08:57:09;1.80;;;1.30;;
51614;SDS011;37695;52.960;6.188;2023-07-31T08:59:36;1.80;;;1.20;;
51614;SDS011;37695;52.960;6.188;2023-07-31T09:02:04;1.40;;;1.20;;
51614;SDS011;37695;52.960;6.188;2023-07-31T09:04:32;1.90;;;1.20;;
51614;SDS011;37695;52.960;6.188;2023-07-31T09:06:59;1.33;;;1.20;;
51614;SDS011;37695;52.960;6.188;2023-07-31T09:09:28;1.45;;;1.13;;
51614;SDS011;37695;52.960;6.188;2023-07-31T09:11:54;4.53;;;1.40;;
51614;SDS011;37695;52.960;6.188;2023-07-31T09:14:20;1.35;;;1.10;;
51614;SDS011;37695;52.960;6.188;2023-07-31T09:16:53;1.20;;;1.10;;
51614;SDS011;37695;52.960;6.188;2023-07-31T09:19:29;1.75;;;1.00;;
51614;SDS011;37695;52.960;6.188;2023-07-31T09:21:59;1.10;;;1.00;;
51614;SDS011;37695;52.960;6.188;2023-07-31T09:24:26;1.10;;;1.00;;
51614;SDS011;37695;52.960;6.188;2023-07-31T09:26:53;1.33;;;1.00;;
51614;SDS011;37695;52.960;6.188;2023-07-31T09:29:21;2.47;;;1.33;;
51614;SDS011;37695;52.960;6.188;2023-07-31T09:31:46;1.30;;;0.90;;
51614;SDS011;37695;52.960;6.188;2023-07-31T09:34:12;1.83;;;1.02;;
51614;SDS011;37695;52.960;6.188;2023-07-31T09:39:10;1.45;;;1.00;;
51614;SDS011;37695;52.960;6.188;2023-07-31T09:41:38;1.15;;;1.05;;
51614;SDS011;37695;52.960;6.188;2023-07-31T09:44:04;1.73;;;1.20;;
51614;SDS011;37695;52.960;6.188;2023-07-31T09:46:30;1.10;;;1.00;;
51614;SDS011;37695;52.960;6.188;2023-07-31T09:49:08;1.42;;;1.05;;
51614;SDS011;37695;52.960;6.188;2023-07-31T09:51:38;1.10;;;1.00;;
51614;SDS011;37695;52.960;6.188;2023-07-31T09:54:11;0.90;;;0.90;;
51614;SDS011;37695;52.960;6.188;2023-07-31T09:56:42;0.82;;;0.82;;
51614;SDS011;37695;52.960;6.188;2023-07-31T09:59:10;1.30;;;1.00;;
51614;SDS011;37695;52.960;6.188;2023-07-31T10:01:37;1.33;;;1.00;;
51614;SDS011;37695;52.960;6.188;2023-07-31T10:04:03;1.17;;;1.08;;
51614;SDS011;37695;52.960;6.188;2023-07-31T10:06:30;1.15;;;1.05;;
51614;SDS011;37695;52.960;6.188;2023-07-31T10:08:57;1.00;;;0.90;;
51614;SDS011;37695;52.960;6.188;2023-07-31T10:11:23;1.50;;;1.10;;
51614;SDS011;37695;52.960;6.188;2023-07-31T10:13:50;2.17;;;1.05;;
51614;SDS011;37695;52.960;6.188;2023-07-31T10:16:16;1.35;;;1.15;;
51614;SDS011;37695;52.960;6.188;2023-07-31T10:18:43;1.30;;;1.05;;
51614;SDS011;37695;52.960;6.188;2023-07-31T10:21:10;1.20;;;0.98;;
51614;SDS011;37695;52.960;6.188;2023-07-31T10:23:36;2.50;;;1.20;;
51614;SDS011;37695;52.960;6.188;2023-07-31T10:26:03;4.22;;;1.60;;
51614;SDS011;37695;52.960;6.188;2023-07-31T10:28:32;4.25;;;1.38;;
51614;SDS011;37695;52.960;6.188;2023-07-31T10:30:59;1.63;;;1.30;;
51614;SDS011;37695;52.960;6.188;2023-07-31T10:33:26;2.20;;;1.55;;
51614;SDS011;37695;52.960;6.188;2023-07-31T10:36:11;4.03;;;1.67;;
51614;SDS011;37695;52.960;6.188;2023-07-31T10:38:43;4.35;;;1.80;;
51614;SDS011;37695;52.960;6.188;2023-07-31T10:41:09;4.88;;;1.90;;
51614;SDS011;37695;52.960;6.188;2023-07-31T10:43:36;4.30;;;1.73;;
51614;SDS011;37695;52.960;6.188;2023-07-31T10:46:09;3.60;;;1.80;;
51614;SDS011;37695;52.960;6.188;2023-07-31T10:48:38;4.60;;;1.85;;
51614;SDS011;37695;52.960;6.188;2023-07-31T10:51:07;4.80;;;1.90;;
51614;SDS011;37695;52.960;6.188;2023-07-31T10:53:33;5.70;;;1.80;;
51614;SDS011;37695;52.960;6.188;2023-07-31T10:56:00;8.60;;;1.98;;
51614;SDS011;37695;52.960;6.188;2023-07-31T10:58:29;4.22;;;1.70;;
51614;SDS011;37695;52.960;6.188;2023-07-31T11:01:02;4.43;;;1.70;;
51614;SDS011;37695;52.960;6.188;2023-07-31T11:06:09;0.98;;;0.93;;
51614;SDS011;37695;52.960;6.188;2023-07-31T11:08:35;1.20;;;1.10;;
51614;SDS011;37695;52.960;6.188;2023-07-31T11:11:11;2.17;;;1.10;;
51614;SDS011;37695;52.960;6.188;2023-07-31T11:13:44;0.90;;;0.90;;
51614;SDS011;37695;52.960;6.188;2023-07-31T11:16:14;1.15;;;0.90;;
51614;SDS011;37695;52.960;6.188;2023-07-31T11:18:40;1.13;;;0.90;;
51614;SDS011;37695;52.960;6.188;2023-07-31T11:21:08;1.45;;;0.90;;
51614;SDS011;37695;52.960;6.188;2023-07-31T11:23:36;1.15;;;0.90;;
51614;SDS011;37695;52.960;6.188;2023-07-31T11:26:04;2.33;;;0.85;;
51614;SDS011;37695;52.960;6.188;2023-07-31T11:28:31;1.15;;;0.90;;
51614;SDS011;37695;52.960;6.188;2023-07-31T11:30:58;0.93;;;0.93;;
51614;SDS011;37695;52.960;6.188;2023-07-31T11:33:25;1.05;;;1.00;;
51614;SDS011;37695;52.960;6.188;2023-07-31T11:35:51;1.80;;;1.10;;
51614;SDS011;37695;52.960;6.188;2023-07-31T11:38:29;1.25;;;1.15;;
51614;SDS011;37695;52.960;6.188;2023-07-31T11:40:56;2.25;;;1.10;;
51614;SDS011;37695;52.960;6.188;2023-07-31T11:43:23;2.10;;;1.42;;
51614;SDS011;37695;52.960;6.188;2023-07-31T11:45:51;1.20;;;1.10;;
51614;SDS011;37695;52.960;6.188;2023-07-31T11:48:22;2.05;;;1.20;;
51614;SDS011;37695;52.960;6.188;2023-07-31T11:50:54;2.53;;;1.58;;
51614;SDS011;37695;52.960;6.188;2023-07-31T11:53:26;5.07;;;1.65;;
51614;SDS011;37695;52.960;6.188;2023-07-31T11:55:57;3.28;;;1.60;;
51614;SDS011;37695;52.960;6.188;2023-07-31T11:58:24;4.07;;;1.65;;
51614;SDS011;37695;52.960;6.188;2023-07-31T12:00:50;3.28;;;1.40;;
51614;SDS011;37695;52.960;6.188;2023-07-31T12:03:16;2.25;;;1.48;;
51614;SDS011;37695;52.960;6.188;2023-07-31T12:05:43;4.78;;;1.63;;
51614;SDS011;37695;52.960;6.188;2023-07-31T12:08:10;6.40;;;1.67;;
51614;SDS011;37695;52.960;6.188;2023-07-31T12:10:36;5.40;;;2.10;;
51614;SDS011;37695;52.960;6.188;2023-07-31T12:13:04;3.83;;;1.67;;
51614;SDS011;37695;52.960;6.188;2023-07-31T12:15:42;2.85;;;1.60;;
51614;SDS011;37695;52.960;6.188;2023-07-31T12:18:13;5.43;;;2.08;;
51614;SDS011;37695;52.960;6.188;2023-07-31T12:20:40;3.35;;;1.90;;
51614;SDS011;37695;52.960;6.188;2023-07-31T12:23:07;7.32;;;1.90;;
51614;SDS011;37695;52.960;6.188;2023-07-31T12:25:37;3.78;;;1.77;;
51614;SDS011;37695;52.960;6.188;2023-07-31T12:28:06;3.95;;;1.88;;
51614;SDS011;37695;52.960;6.188;2023-07-31T12:30:36;3.37;;;1.80;;
51614;SDS011;37695;52.960;6.188;2023-07-31T12:33:07;4.15;;;1.77;;
51614;SDS011;37695;52.960;6.188;2023-07-31T12:35:41;3.45;;;2.30;;
51614;SDS011;37695;52.960;6.188;2023-07-31T12:38:08;4.65;;;2.20;;
51614;SDS011;37695;52.960;6.188;2023-07-31T12:40:36;6.97;;;2.65;;
51614;SDS011;37695;52.960;6.188;2023-07-31T12:43:04;8.18;;;2.65;;
51614;SDS011;37695;52.960;6.188;2023-07-31T12:45:30;7.63;;;3.13;;
51614;SDS011;37695;52.960;6.188;2023-07-31T12:47:56;7.25;;;2.85;;
51614;SDS011;37695;52.960;6.188;2023-07-31T12:50:22;9.73;;;3.63;;
51614;SDS011;37695;52.960;6.188;2023-07-31T12:52:48;7.20;;;3.20;;
51614;SDS011;37695;52.960;6.188;2023-07-31T12:55:14;7.40;;;3.28;;
51614;SDS011;37695;52.960;6.188;2023-07-31T12:57:40;8.88;;;3.33;;
51614;SDS011;37695;52.960;6.188;2023-07-31T13:00:07;8.05;;;3.55;;
51614;SDS011;37695;52.960;6.188;2023-07-31T13:02:33;7.65;;;2.85;;
51614;SDS011;37695;52.960;6.188;2023-07-31T13:04:58;7.47;;;3.00;;
51614;SDS011;37695;52.960;6.188;2023-07-31T13:07:24;11.15;;;3.70;;
51614;SDS011;37695;52.960;6.188;2023-07-31T13:09:50;6.38;;;3.13;;
51614;SDS011;37695;52.960;6.188;2023-07-31T13:12:16;9.13;;;2.90;;
51614;SDS011;37695;52.960;6.188;2023-07-31T13:14:41;9.15;;;3.58;;
51614;SDS011;37695;52.960;6.188;2023-07-31T13:17:07;8.00;;;3.05;;
51614;SDS011;37695;52.960;6.188;2023-07-31T13:19:35;7.20;;;3.05;;
51614;SDS011;37695;52.960;6.188;2023-07-31T13:22:00;13.70;;;3.65;;
51614;SDS011;37695;52.960;6.188;2023-07-31T13:24:26;7.55;;;2.90;;
51614;SDS011;37695;52.960;6.188;2023-07-31T13:26:51;7.95;;;3.03;;
51614;SDS011;37695;52.960;6.188;2023-07-31T13:29:17;7.07;;;2.95;;
51614;SDS011;37695;52.960;6.188;2023-07-31T13:31:42;7.32;;;3.17;;
51614;SDS011;37695;52.960;6.188;2023-07-31T13:34:08;7.57;;;3.10;;
51614;SDS011;37695;52.960;6.188;2023-07-31T13:36:33;10.00;;;3.40;;
51614;SDS011;37695;52.960;6.188;2023-07-31T13:38:59;9.48;;;3.40;;
51614;SDS011;37695;52.960;6.188;2023-07-31T13:41:26;9.88;;;4.25;;
51614;SDS011;37695;52.960;6.188;2023-07-31T13:43:51;8.95;;;3.60;;
51614;SDS011;37695;52.960;6.188;2023-07-31T13:46:17;10.15;;;4.05;;
51614;SDS011;37695;52.960;6.188;2023-07-31T13:48:42;8.75;;;3.53;;
51614;SDS011;37695;52.960;6.188;2023-07-31T13:51:08;10.95;;;3.60;;
51614;SDS011;37695;52.960;6.188;2023-07-31T13:53:33;10.10;;;3.88;;
51614;SDS011;37695;52.960;6.188;2023-07-31T13:55:59;11.40;;;4.35;;
51614;SDS011;37695;52.960;6.188;2023-07-31T13:58:24;9.77;;;3.70;;
51614;SDS011;37695;52.960;6.188;2023-07-31T14:00:50;9.07;;;3.80;;
51614;SDS011;37695;52.960;6.188;2023-07-31T14:03:16;9.15;;;4.03;;
51614;SDS011;37695;52.960;6.188;2023-07-31T14:05:41;11.48;;;4.30;;
51614;SDS011;37695;52.960;6.188;2023-07-31T14:08:07;10.50;;;4.00;;
51614;SDS011;37695;52.960;6.188;2023-07-31T14:10:32;8.90;;;4.13;;
51614;SDS011;37695;52.960;6.188;2023-07-31T14:12:58;14.30;;;4.20;;
51614;SDS011;37695;52.960;6.188;2023-07-31T14:15:23;12.52;;;3.78;;
51614;SDS011;37695;52.960;6.188;2023-07-31T14:17:49;8.63;;;3.95;;
51614;SDS011;37695;52.960;6.188;2023-07-31T14:20:14;9.10;;;4.10;;
51614;SDS011;37695;52.960;6.188;2023-07-31T14:22:40;10.88;;;4.45;;
51614;SDS011;37695;52.960;6.188;2023-07-31T14:25:06;8.15;;;4.03;;
51614;SDS011;37695;52.960;6.188;2023-07-31T14:27:32;10.13;;;4.60;;
51614;SDS011;37695;52.960;6.188;2023-07-31T14:29:57;9.15;;;3.75;;
51614;SDS011;37695;52.960;6.188;2023-07-31T14:32:23;8.40;;;4.30;;
51614;SDS011;37695;52.960;6.188;2023-07-31T14:34:50;12.15;;;4.03;;
51614;SDS011;37695;52.960;6.188;2023-07-31T14:37:16;9.68;;;3.80;;
51614;SDS011;37695;52.960;6.188;2023-07-31T14:39:41;8.40;;;3.70;;
51614;SDS011;37695;52.960;6.188;2023-07-31T14:42:08;8.27;;;3.80;;
51614;SDS011;37695;52.960;6.188;2023-07-31T14:44:34;9.57;;;3.15;;
51614;SDS011;37695;52.960;6.188;2023-07-31T14:46:59;10.45;;;3.80;;
51614;SDS011;37695;52.960;6.188;2023-07-31T14:49:25;7.47;;;3.22;;
51614;SDS011;37695;52.960;6.188;2023-07-31T14:51:52;9.18;;;3.45;;